createdAt,value
2022-12-19T00:03:59.020Z,-9.01
2022-12-19T00:14:15.920Z,-9.26
2022-12-19T00:24:21.988Z,-9.36
2022-12-19T00:34:27.817Z,-9.34
2022-12-19T00:44:33.598Z,-9.46
2022-12-19T00:54:39.250Z,-9.69
2022-12-19T01:04:45.546Z,-9.76
2022-12-19T01:14:52.938Z,-9.85
2022-12-19T01:24:58.626Z,-10.00
2022-12-19T01:35:04.645Z,-10.22
2022-12-19T01:45:43.576Z,-10.39
2022-12-19T01:55:54.278Z,-10.54
2022-12-19T02:06:01.804Z,-10.63
2022-12-19T02:16:20.165Z,-10.71
2022-12-19T02:26:49.144Z,-10.82
2022-12-19T02:36:58.162Z,-10.88
2022-12-19T02:47:06.571Z,-10.97
2022-12-19T02:57:20.952Z,-11.05
2022-12-19T03:07:37.469Z,-11.11
2022-12-19T03:17:43.427Z,-11.22
2022-12-19T03:27:51.705Z,-11.31
2022-12-19T03:38:02.924Z,-11.37
2022-12-19T03:48:12.356Z,-11.51
2022-12-19T03:58:25.370Z,-11.61
2022-12-19T04:08:32.814Z,-11.69
2022-12-19T04:18:42.590Z,-11.76
2022-12-19T04:28:51.471Z,-11.88
2022-12-19T04:38:57.371Z,-12.00
2022-12-19T04:49:03.333Z,-12.11
2022-12-19T04:59:09.050Z,-12.13
2022-12-19T05:09:14.838Z,-12.21
2022-12-19T05:19:20.425Z,-12.28
2022-12-19T05:29:26.354Z,-12.33
2022-12-19T05:39:32.301Z,-12.36
2022-12-19T05:49:41.662Z,-12.40
2022-12-19T05:59:47.423Z,-12.40
2022-12-19T06:09:53.128Z,-12.42
2022-12-19T06:19:58.833Z,-12.43
2022-12-19T06:30:04.750Z,-12.43
2022-12-19T06:40:33.945Z,-12.40
2022-12-19T06:50:39.651Z,-12.32
2022-12-19T07:00:45.258Z,-12.18
2022-12-19T07:10:51.045Z,-11.98
2022-12-19T07:20:57.709Z,-11.67
2022-12-19T07:31:03.771Z,-11.38
2022-12-19T07:41:09.624Z,-11.12
2022-12-19T07:51:15.382Z,-10.66
2022-12-19T08:01:21.504Z,-8.77
2022-12-19T08:11:29.445Z,-6.14
2022-12-19T08:21:35.267Z,-4.02
2022-12-19T08:31:41.097Z,-3.05
2022-12-19T08:41:46.796Z,-2.85
2022-12-19T08:51:52.436Z,-2.76
2022-12-19T09:01:58.401Z,-3.29
2022-12-19T09:12:04.659Z,-2.50
2022-12-19T09:22:10.316Z,-0.86
2022-12-19T09:32:16.027Z,-2.15
2022-12-19T09:42:41.233Z,-4.39
2022-12-19T09:52:56.369Z,-5.82
2022-12-19T10:03:06.557Z,-6.31
2022-12-19T10:13:22.196Z,-6.66
2022-12-19T10:23:50.557Z,-6.91
2022-12-19T10:34:03.667Z,-7.01
2022-12-19T10:44:11.204Z,-6.98
2022-12-19T10:54:18.176Z,-6.94
2022-12-19T11:04:34.432Z,-6.91
2022-12-19T11:18:23.809Z,-6.77
2022-12-19T11:29:38.526Z,-6.45
2022-12-19T11:35:51.349Z,-6.17
2022-12-19T11:46:05.781Z,-5.85
2022-12-19T11:56:16.358Z,-5.33
2022-12-19T12:06:31.140Z,-4.84
2022-12-19T12:28:20.374Z,-4.70
2022-12-19T12:31:42.781Z,-4.80
2022-12-19T12:38:21.517Z,-4.85
2022-12-19T12:48:37.704Z,-4.90
2022-12-19T12:59:01.435Z,-5.05
2022-12-19T13:09:25.673Z,-5.23
2022-12-19T13:19:33.047Z,-5.42
2022-12-19T13:29:54.418Z,-5.72
2022-12-19T13:40:14.246Z,-5.96
2022-12-19T13:50:30.953Z,-6.18
2022-12-19T14:00:43.164Z,-6.38
2022-12-19T14:11:33.616Z,-6.55
2022-12-19T14:22:11.848Z,-6.66
2022-12-19T14:31:58.393Z,-6.67
2022-12-19T14:43:55.504Z,-6.55
2022-12-19T14:54:26.804Z,-6.43
2022-12-19T15:04:33.670Z,-6.50
2022-12-19T15:14:50.792Z,-6.61
2022-12-19T15:24:50.880Z,-6.67
2022-12-19T15:34:56.606Z,-6.54
2022-12-19T15:45:03.077Z,-6.31
2022-12-19T15:55:13.549Z,-6.29
2022-12-19T16:05:21.138Z,-6.41
2022-12-19T16:15:30.053Z,-6.54
2022-12-19T16:25:38.156Z,-6.60
2022-12-19T16:46:16.488Z,-6.58
2022-12-19T16:56:29.321Z,-6.35
2022-12-19T17:06:35.072Z,-6.22
2022-12-19T17:16:41.009Z,-6.09
2022-12-19T17:26:47.540Z,-5.99
2022-12-19T17:36:53.430Z,-5.91
2022-12-19T17:46:59.658Z,-5.82
2022-12-19T17:57:05.594Z,-5.76
2022-12-19T18:07:16.471Z,-5.69
2022-12-19T18:17:26.369Z,-5.66
2022-12-19T18:27:32.325Z,-5.59
2022-12-19T18:37:38.012Z,-5.47
2022-12-19T18:47:44.557Z,-5.31
2022-12-19T18:57:54.509Z,-5.12
2022-12-19T19:08:03.069Z,-4.88
2022-12-19T19:18:10.289Z,-4.63
2022-12-19T19:28:16.242Z,-4.41
2022-12-19T19:38:21.323Z,-4.20
2022-12-19T19:48:27.024Z,-4.00
2022-12-19T19:58:33.197Z,-3.77
2022-12-19T20:08:40.696Z,-3.48
2022-12-19T20:18:50.116Z,-3.18
2022-12-19T20:28:56.855Z,-2.89
2022-12-19T20:39:02.700Z,-2.66
2022-12-19T20:49:08.472Z,-2.51
2022-12-19T20:59:14.274Z,-2.38
2022-12-19T21:09:20.115Z,-2.26
2022-12-19T21:19:25.865Z,-2.17
2022-12-19T21:29:31.586Z,-2.06
2022-12-19T21:39:37.460Z,-1.94
2022-12-19T21:49:43.556Z,-1.82
2022-12-19T21:59:49.655Z,-1.68
2022-12-19T22:09:55.510Z,-1.52
2022-12-19T22:20:04.752Z,-1.39
2022-12-19T22:30:15.820Z,-1.31
2022-12-19T22:40:21.571Z,-1.24
2022-12-19T22:50:27.298Z,-1.18
2022-12-19T23:00:33.741Z,-1.13
2022-12-19T23:10:40.163Z,-1.09
2022-12-19T23:20:46.329Z,-1.09
2022-12-19T23:30:52.176Z,-1.05
2022-12-19T23:41:03.008Z,-1.02
2022-12-19T23:51:11.501Z,-0.98
